createdAt,value
2023-02-11T00:01:41.544Z,20.75
2023-02-11T00:04:46.231Z,27.58
2023-02-11T00:07:50.723Z,25.42
2023-02-11T00:10:57.773Z,24.52
2023-02-11T00:14:06.026Z,18.63
2023-02-11T00:17:10.479Z,18.02
2023-02-11T00:20:15.620Z,17.38
2023-02-11T00:23:20.049Z,12.57
2023-02-11T00:26:32.382Z,16.27
2023-02-11T00:29:40.201Z,13.70
2023-02-11T00:32:44.974Z,18.20
2023-02-11T00:35:50.090Z,16.88
2023-02-11T00:38:57.569Z,15.18
2023-02-11T00:42:02.234Z,18.80
2023-02-11T00:45:06.871Z,14.30
2023-02-11T00:48:11.634Z,18.63
2023-02-11T00:51:16.153Z,14.20
2023-02-11T00:54:20.780Z,14.52
2023-02-11T00:57:25.214Z,12.73
2023-02-11T01:00:30.010Z,13.15
2023-02-11T01:03:35.243Z,13.88
2023-02-11T01:06:39.613Z,13.15
2023-02-11T01:09:44.144Z,11.77
2023-02-11T01:12:48.647Z,14.38
2023-02-11T01:15:53.608Z,13.48
2023-02-11T01:18:58.983Z,17.90
2023-02-11T01:22:03.757Z,14.32
2023-02-11T01:25:08.832Z,15.18
2023-02-11T01:28:28.759Z,14.27
2023-02-11T01:31:33.736Z,13.40
2023-02-11T01:34:38.459Z,16.08
2023-02-11T01:37:43.316Z,13.38
2023-02-11T01:41:00.671Z,12.05
2023-02-11T01:44:31.315Z,16.45
2023-02-11T01:47:36.098Z,13.40
2023-02-11T01:50:42.479Z,11.55
2023-02-11T01:54:06.700Z,13.10
2023-02-11T01:57:22.173Z,12.57
2023-02-11T02:00:36.252Z,10.40
2023-02-11T02:03:44.864Z,13.52
2023-02-11T02:07:02.559Z,10.02
2023-02-11T02:10:15.354Z,12.80
2023-02-11T02:13:20.376Z,16.42
2023-02-11T02:16:36.508Z,11.18
2023-02-11T02:20:16.239Z,9.32
2023-02-11T02:23:49.646Z,12.90
2023-02-11T02:27:47.100Z,9.85
2023-02-11T02:31:08.558Z,10.77
2023-02-11T02:34:29.572Z,14.20
2023-02-11T02:37:59.240Z,14.98
2023-02-11T02:41:08.554Z,14.38
2023-02-11T02:44:12.873Z,14.23
2023-02-11T02:47:17.566Z,13.10
2023-02-11T02:50:30.369Z,12.60
2023-02-11T02:54:17.551Z,14.07
2023-02-11T02:58:02.673Z,18.23
2023-02-11T03:01:50.060Z,11.48
2023-02-11T03:05:09.819Z,12.80
2023-02-11T03:08:33.820Z,12.45
2023-02-11T03:11:39.192Z,19.87
2023-02-11T03:14:45.326Z,15.13
2023-02-11T03:17:54.071Z,11.15
2023-02-11T03:21:01.021Z,13.07
2023-02-11T03:24:21.047Z,13.63
2023-02-11T03:27:28.080Z,13.80
2023-02-11T03:30:44.055Z,11.23
2023-02-11T03:34:15.762Z,12.30
2023-02-11T03:37:25.940Z,19.52
2023-02-11T03:40:36.668Z,17.75
2023-02-11T03:43:46.399Z,15.48
2023-02-11T03:46:59.123Z,14.27
2023-02-11T03:50:14.672Z,15.18
2023-02-11T03:53:23.118Z,14.65
2023-02-11T03:56:33.190Z,15.50
2023-02-11T03:59:54.351Z,14.00
2023-02-11T04:02:59.244Z,20.83
2023-02-11T04:06:04.321Z,16.58
2023-02-11T04:09:09.379Z,14.50
2023-02-11T04:12:14.271Z,12.43
2023-02-11T04:15:19.470Z,13.70
2023-02-11T04:18:24.536Z,16.75
2023-02-11T04:21:29.250Z,14.90
2023-02-11T04:24:35.175Z,15.90
2023-02-11T04:27:39.833Z,16.70
2023-02-11T04:30:44.210Z,16.10
2023-02-11T04:33:48.913Z,18.15
2023-02-11T04:36:53.556Z,14.77
2023-02-11T04:39:58.210Z,14.27
2023-02-11T04:43:03.011Z,16.45
2023-02-11T04:46:07.672Z,18.05
2023-02-11T04:49:15.366Z,19.58
2023-02-11T04:52:19.762Z,16.08
2023-02-11T04:55:24.847Z,18.77
2023-02-11T04:58:29.179Z,17.92
2023-02-11T05:01:34.164Z,13.63
2023-02-11T05:04:38.780Z,14.77
2023-02-11T05:07:43.573Z,19.98
2023-02-11T05:10:48.345Z,21.00
2023-02-11T05:13:53.362Z,19.27
2023-02-11T05:16:57.913Z,19.65
2023-02-11T05:20:03.024Z,18.05
2023-02-11T05:23:08.160Z,20.80
2023-02-11T05:26:13.386Z,16.98
2023-02-11T05:29:17.665Z,18.00
2023-02-11T05:32:22.223Z,24.55
2023-02-11T05:35:26.725Z,20.27
2023-02-11T05:38:31.829Z,23.35
2023-02-11T05:41:38.160Z,29.70
2023-02-11T05:44:42.795Z,18.35
2023-02-11T05:47:47.511Z,17.80
2023-02-11T05:50:52.504Z,24.10
2023-02-11T05:53:57.160Z,19.90
2023-02-11T05:57:03.279Z,20.75
2023-02-11T06:00:10.246Z,20.67
2023-02-11T06:03:17.788Z,20.90
2023-02-11T06:06:22.635Z,24.65
2023-02-11T06:09:27.728Z,19.13
2023-02-11T06:12:32.411Z,17.60
2023-02-11T06:15:37.058Z,16.67
2023-02-11T06:18:41.781Z,24.48
2023-02-11T06:21:46.367Z,20.27
2023-02-11T06:25:01.397Z,20.50
2023-02-11T06:28:06.775Z,23.33
2023-02-11T06:31:12.236Z,21.73
2023-02-11T06:34:16.851Z,24.48
2023-02-11T06:37:21.774Z,25.15
2023-02-11T06:40:26.483Z,23.25
2023-02-11T06:43:31.206Z,23.90
2023-02-11T06:46:35.541Z,27.23
2023-02-11T06:49:40.047Z,25.02
2023-02-11T06:52:44.728Z,23.10
2023-02-11T06:55:49.784Z,23.08
2023-02-11T06:58:56.160Z,23.60
2023-02-11T07:02:00.724Z,23.98
2023-02-11T07:05:07.292Z,23.92
2023-02-11T07:08:12.169Z,25.35
2023-02-11T07:11:20.629Z,26.42
2023-02-11T07:14:25.623Z,23.55
2023-02-11T07:17:29.995Z,28.33
2023-02-11T07:20:34.629Z,22.08
2023-02-11T07:23:40.884Z,21.25
2023-02-11T07:26:45.597Z,26.77
2023-02-11T07:29:50.152Z,25.27
2023-02-11T07:32:56.051Z,24.73
2023-02-11T07:36:01.587Z,24.63
2023-02-11T07:39:06.231Z,25.75
2023-02-11T07:42:11.267Z,24.67
2023-02-11T07:45:16.333Z,26.80
2023-02-11T07:48:20.719Z,25.13
2023-02-11T07:51:30.973Z,26.75
2023-02-11T07:54:36.111Z,30.90
2023-02-11T07:57:41.319Z,25.20
2023-02-11T08:00:46.055Z,26.55
2023-02-11T08:03:51.690Z,32.88
2023-02-11T08:06:59.087Z,32.50
2023-02-11T08:10:04.759Z,30.00
2023-02-11T08:13:09.344Z,29.45
2023-02-11T08:16:30.519Z,33.25
2023-02-11T08:19:35.428Z,28.58
2023-02-11T08:22:39.989Z,37.00
2023-02-11T08:25:44.944Z,30.95
2023-02-11T08:28:53.939Z,37.30
2023-02-11T08:31:58.541Z,38.20
2023-02-11T08:35:03.234Z,39.85
2023-02-11T08:38:08.968Z,34.30
2023-02-11T08:41:17.151Z,33.97
2023-02-11T08:44:23.450Z,36.60
2023-02-11T08:47:27.630Z,38.05
2023-02-11T08:50:32.344Z,33.50
2023-02-11T08:53:37.310Z,41.70
2023-02-11T08:56:41.996Z,39.22
2023-02-11T08:59:46.289Z,39.28
2023-02-11T09:02:50.746Z,35.97
2023-02-11T09:05:55.221Z,39.40
2023-02-11T09:08:59.999Z,38.17
2023-02-11T09:12:05.488Z,33.28
2023-02-11T09:15:10.345Z,44.05
2023-02-11T09:18:15.199Z,35.35
2023-02-11T09:21:20.226Z,39.95
2023-02-11T09:24:24.907Z,37.53
2023-02-11T09:27:29.239Z,37.45
2023-02-11T09:30:36.638Z,35.25
2023-02-11T09:33:47.864Z,40.10
2023-02-11T09:36:52.615Z,32.28
2023-02-11T09:39:57.262Z,29.65
2023-02-11T09:43:19.539Z,33.30
2023-02-11T09:46:26.763Z,32.13
2023-02-11T09:49:44.289Z,30.52
2023-02-11T09:53:01.714Z,28.13
2023-02-11T09:56:14.895Z,30.75
2023-02-11T09:59:20.236Z,31.52
2023-02-11T10:02:49.231Z,37.47
2023-02-11T10:06:13.138Z,45.20
2023-02-11T10:10:02.870Z,35.45
2023-02-11T10:13:43.009Z,30.02
2023-02-11T10:17:06.036Z,29.95
2023-02-11T10:20:51.827Z,27.45
2023-02-11T10:24:03.978Z,36.00
2023-02-11T10:27:24.381Z,24.92
2023-02-11T10:30:41.351Z,29.55
2023-02-11T10:34:09.807Z,34.80
2023-02-11T10:37:14.832Z,23.90
2023-02-11T10:40:26.922Z,36.67
2023-02-11T10:43:33.401Z,31.02
2023-02-11T10:46:40.241Z,30.25
2023-02-11T10:49:47.149Z,27.40
2023-02-11T10:52:52.028Z,27.52
2023-02-11T10:55:57.540Z,27.17
2023-02-11T10:59:15.265Z,34.42
2023-02-11T11:02:36.151Z,24.80
2023-02-11T11:06:06.343Z,28.15
2023-02-11T11:09:30.641Z,27.77
2023-02-11T11:12:48.987Z,28.67
2023-02-11T11:16:12.481Z,27.42
2023-02-11T11:19:25.874Z,29.08
2023-02-11T11:22:30.716Z,26.85
2023-02-11T11:25:41.558Z,23.92
2023-02-11T11:28:49.488Z,23.67
2023-02-11T11:32:15.283Z,23.25
2023-02-11T11:35:29.479Z,19.90
2023-02-11T11:38:38.226Z,25.27
2023-02-11T11:41:59.401Z,22.05
2023-02-11T11:45:17.585Z,30.67
2023-02-11T11:48:45.087Z,27.08
2023-02-11T11:52:09.747Z,28.27
2023-02-11T11:55:24.719Z,32.42
2023-02-11T11:58:31.582Z,27.73
2023-02-11T12:01:44.109Z,28.17
2023-02-11T12:05:32.619Z,30.55
2023-02-11T12:09:38.486Z,22.65
2023-02-11T12:12:54.296Z,21.45
2023-02-11T12:16:28.527Z,23.65
2023-02-11T12:23:16.034Z,18.88
2023-02-11T12:26:41.614Z,19.92
2023-02-11T12:30:17.329Z,15.50
2023-02-11T12:33:40.580Z,18.33
2023-02-11T12:37:02.867Z,17.67
2023-02-11T12:41:02.584Z,21.63
2023-02-11T12:44:16.761Z,17.20
2023-02-11T12:51:37.629Z,18.23
2023-02-11T12:55:25.602Z,14.75
2023-02-11T12:58:44.650Z,15.40
2023-02-11T13:01:51.930Z,14.88
2023-02-11T13:05:05.322Z,14.55
2023-02-11T13:08:33.854Z,16.08
2023-02-11T13:11:51.924Z,12.13
2023-02-11T13:15:04.844Z,18.10
2023-02-11T13:18:44.940Z,14.57
2023-02-11T13:21:59.260Z,13.95
2023-02-11T13:28:48.562Z,13.68
2023-02-11T13:32:12.595Z,9.95
2023-02-11T13:35:39.608Z,11.82
2023-02-11T13:39:01.295Z,11.77
2023-02-11T13:42:06.067Z,10.35
2023-02-11T13:45:25.072Z,9.38
2023-02-11T13:48:53.196Z,11.30
2023-02-11T13:52:00.600Z,8.85
2023-02-11T13:55:22.644Z,10.77
2023-02-11T13:58:27.401Z,11.50
2023-02-11T14:02:05.954Z,11.68
2023-02-11T14:05:43.700Z,10.10
2023-02-11T14:09:29.072Z,11.95
2023-02-11T14:12:35.068Z,12.77
2023-02-11T14:15:41.221Z,12.32
2023-02-11T14:18:49.289Z,9.50
2023-02-11T14:22:02.286Z,7.85
2023-02-11T14:25:25.664Z,10.20
2023-02-11T14:28:34.376Z,7.68
2023-02-11T14:32:05.914Z,8.93
2023-02-11T14:36:07.729Z,11.40
2023-02-11T14:39:49.524Z,11.68
2023-02-11T14:42:55.260Z,11.55
2023-02-11T14:46:02.879Z,15.43
2023-02-11T14:49:13.619Z,12.25
2023-02-11T14:52:31.925Z,10.02
2023-02-11T14:55:41.697Z,12.52
2023-02-11T14:58:48.921Z,12.23
2023-02-11T15:01:56.904Z,12.10
2023-02-11T15:05:27.233Z,11.27
2023-02-11T15:08:35.457Z,12.13
2023-02-11T15:11:43.046Z,11.27
2023-02-11T15:14:55.267Z,9.80
2023-02-11T15:18:03.599Z,11.75
2023-02-11T15:21:09.570Z,10.85
2023-02-11T15:24:31.683Z,9.55
2023-02-11T15:27:46.250Z,11.38
2023-02-11T15:31:16.041Z,9.88
2023-02-11T15:34:20.808Z,10.38
2023-02-11T15:37:32.349Z,10.63
2023-02-11T15:40:37.926Z,10.05
2023-02-11T15:43:48.860Z,11.35
2023-02-11T15:46:53.604Z,8.63
2023-02-11T15:49:58.596Z,8.75
2023-02-11T15:53:30.104Z,7.93
2023-02-11T15:56:47.421Z,8.00
2023-02-11T15:59:54.506Z,8.38
2023-02-11T16:02:59.370Z,7.10
2023-02-11T16:06:24.102Z,7.70
2023-02-11T16:09:36.863Z,6.40
2023-02-11T16:12:41.348Z,8.35
2023-02-11T16:16:02.649Z,7.50
2023-02-11T16:19:19.318Z,8.98
2023-02-11T16:22:30.344Z,8.10
2023-02-11T16:25:36.171Z,8.52
2023-02-11T16:28:41.471Z,6.95
2023-02-11T16:31:48.094Z,7.97
2023-02-11T16:34:55.272Z,8.23
2023-02-11T16:37:59.682Z,8.30
2023-02-11T16:41:04.232Z,9.05
2023-02-11T16:44:09.361Z,6.50
2023-02-11T16:47:25.156Z,7.22
2023-02-11T16:50:30.020Z,7.03
2023-02-11T16:53:34.778Z,7.70
2023-02-11T16:56:39.432Z,6.95
2023-02-11T16:59:45.209Z,7.50
2023-02-11T17:02:49.822Z,8.48
2023-02-11T17:05:55.987Z,8.93
2023-02-11T17:09:30.514Z,6.35
2023-02-11T17:12:35.783Z,6.30
2023-02-11T17:15:40.622Z,8.27
2023-02-11T17:18:45.717Z,9.50
2023-02-11T17:21:52.998Z,10.30
2023-02-11T17:24:58.348Z,7.80
2023-02-11T17:28:05.355Z,7.45
2023-02-11T17:31:10.382Z,7.38
2023-02-11T17:34:16.696Z,7.10
2023-02-11T17:37:21.786Z,7.35
2023-02-11T17:40:26.652Z,12.25
2023-02-11T17:43:32.223Z,8.13
2023-02-11T17:46:37.050Z,13.30
2023-02-11T17:49:42.983Z,17.50
2023-02-11T17:52:47.727Z,25.20
2023-02-11T17:55:54.393Z,19.17
2023-02-11T17:58:58.978Z,14.13
2023-02-11T18:02:05.160Z,12.90
2023-02-11T18:05:10.225Z,9.77
2023-02-11T18:08:15.549Z,9.43
2023-02-11T18:11:22.079Z,8.93
2023-02-11T18:14:27.431Z,9.45
2023-02-11T18:17:31.962Z,6.88
2023-02-11T18:20:36.703Z,7.93
2023-02-11T18:23:41.845Z,9.32
2023-02-11T18:26:46.474Z,7.68
2023-02-11T18:29:51.105Z,8.68
2023-02-11T18:32:56.804Z,8.18
2023-02-11T18:36:12.746Z,7.55
2023-02-11T18:39:19.374Z,7.28
2023-02-11T18:42:23.729Z,9.70
2023-02-11T18:45:31.282Z,7.30
2023-02-11T18:48:36.148Z,7.00
2023-02-11T18:51:40.755Z,6.95
2023-02-11T18:54:45.605Z,7.65
2023-02-11T18:57:51.266Z,9.02
2023-02-11T19:00:55.682Z,8.98
2023-02-11T19:04:04.464Z,10.15
2023-02-11T19:07:09.649Z,11.68
2023-02-11T19:10:14.074Z,9.48
2023-02-11T19:13:18.666Z,11.82
2023-02-11T19:16:23.510Z,16.95
2023-02-11T19:19:31.429Z,19.65
2023-02-11T19:22:35.864Z,20.33
2023-02-11T19:25:47.158Z,20.55
2023-02-11T19:28:51.860Z,17.80
2023-02-11T19:31:56.447Z,20.17
2023-02-11T19:35:01.137Z,18.42
2023-02-11T19:38:05.936Z,16.27
2023-02-11T19:41:12.144Z,14.43
2023-02-11T19:44:16.873Z,11.70
2023-02-11T19:47:27.573Z,13.75
2023-02-11T19:50:32.169Z,13.32
2023-02-11T19:53:38.329Z,12.65
2023-02-11T19:56:45.358Z,13.57
2023-02-11T19:59:50.049Z,12.32
2023-02-11T20:02:54.795Z,13.43
2023-02-11T20:06:28.102Z,13.35
2023-02-11T20:09:33.264Z,9.07
2023-02-11T20:12:38.214Z,10.15
2023-02-11T20:15:42.638Z,11.93
2023-02-11T20:18:49.349Z,11.57
2023-02-11T20:21:55.910Z,9.63
2023-02-11T20:25:00.639Z,8.82
2023-02-11T20:28:05.444Z,9.38
2023-02-11T20:31:11.755Z,9.75
2023-02-11T20:34:21.072Z,10.70
2023-02-11T20:37:26.070Z,11.73
2023-02-11T20:40:31.023Z,9.75
2023-02-11T20:43:38.057Z,11.65
2023-02-11T20:46:48.242Z,9.07
2023-02-11T20:49:55.739Z,9.15
2023-02-11T20:53:00.663Z,10.38
2023-02-11T20:56:08.355Z,10.18
2023-02-11T20:59:14.254Z,11.20
2023-02-11T21:02:18.844Z,10.35
2023-02-11T21:05:23.180Z,11.85
2023-02-11T21:08:28.108Z,10.40
2023-02-11T21:11:33.399Z,10.93
2023-02-11T21:14:38.367Z,9.95
2023-02-11T21:17:43.085Z,9.75
2023-02-11T21:20:47.474Z,10.90
2023-02-11T21:23:52.328Z,13.40
2023-02-11T21:26:57.132Z,10.50
2023-02-11T21:30:02.310Z,10.40
2023-02-11T21:33:08.630Z,10.90
2023-02-11T21:36:14.972Z,13.00
2023-02-11T21:39:20.419Z,12.82
2023-02-11T21:42:24.651Z,8.88
2023-02-11T21:45:31.413Z,8.95
2023-02-11T21:48:37.586Z,8.38
2023-02-11T21:51:42.506Z,10.02
2023-02-11T21:54:50.468Z,9.13
2023-02-11T21:57:55.304Z,10.75
2023-02-11T22:01:00.801Z,10.73
2023-02-11T22:04:06.411Z,9.55
2023-02-11T22:07:10.924Z,9.80
2023-02-11T22:10:15.475Z,10.68
2023-02-11T22:13:20.860Z,9.02
2023-02-11T22:16:27.019Z,9.57
2023-02-11T22:19:34.907Z,10.20
2023-02-11T22:22:39.906Z,10.07
2023-02-11T22:25:44.820Z,9.60
2023-02-11T22:28:51.150Z,8.95
2023-02-11T22:31:55.970Z,10.65
2023-02-11T22:35:00.757Z,8.68
2023-02-11T22:38:05.483Z,11.05
2023-02-11T22:41:11.602Z,9.35
2023-02-11T22:44:17.322Z,12.10
2023-02-11T22:47:22.328Z,11.30
2023-02-11T22:50:27.527Z,9.95
2023-02-11T22:53:32.215Z,10.45
2023-02-11T22:56:36.877Z,10.93
2023-02-11T22:59:41.449Z,10.07
2023-02-11T23:02:46.140Z,9.38
2023-02-11T23:05:51.153Z,12.60
2023-02-11T23:08:55.944Z,11.25
2023-02-11T23:12:00.555Z,12.27
2023-02-11T23:15:05.412Z,12.07
2023-02-11T23:18:11.383Z,9.98
2023-02-11T23:21:25.184Z,13.38
2023-02-11T23:24:29.699Z,11.05
2023-02-11T23:27:34.369Z,13.13
2023-02-11T23:30:39.678Z,10.32
2023-02-11T23:33:45.857Z,10.60
2023-02-11T23:36:52.034Z,11.77
2023-02-11T23:39:56.807Z,14.75
2023-02-11T23:43:01.487Z,11.98
2023-02-11T23:46:06.822Z,12.48
2023-02-11T23:49:11.772Z,11.70
2023-02-11T23:52:16.378Z,12.48
2023-02-11T23:55:21.185Z,11.02
2023-02-11T23:58:26.029Z,11.02
